Sabin, Minnesota
Current Conditions -  °F | °C
As of 9:51 AM on Friday 19 Dec 2014 (Local Time) from KJKJ Reporting Station
Haze Haze  
Wind Chill: 16°   Ceiling: 600
Heat Index: 27°   Visibility: 2.5mi
Dew Point: 27°   Wind: 13mph
Humidity: 100%   Direction: 150°SSE
Pressure: 30.1"   Gusts: 16mph
Location:  46.78°N, 96.65°W
Report Text: KJKJ 191551Z AUTO 15011G14KT 2 1/2SM BR OVC006 M03/M03 A3010 RMK AO2
Loading
Personal Weather Stations






























Interactive Weather Map New forecast layout! Learn more

10-Day Weather Forecast

Advertisements
Track Severe Weather on mobile